createdAt,value
2023-03-06T00:00:57.230Z,26.57
2023-03-06T00:07:08.779Z,39.70
2023-03-06T00:13:20.261Z,34.90
2023-03-06T00:19:29.737Z,31.53
2023-03-06T00:25:32.253Z,26.50
2023-03-06T00:31:35.740Z,25.30
2023-03-06T00:37:38.214Z,23.03
2023-03-06T00:43:40.649Z,32.13
2023-03-06T00:49:43.090Z,34.10
2023-03-06T00:55:46.588Z,30.10
2023-03-06T01:01:53.266Z,29.07
2023-03-06T01:07:55.536Z,21.80
2023-03-06T01:13:57.980Z,25.13
2023-03-06T01:20:00.486Z,23.30
2023-03-06T01:26:02.926Z,23.00
2023-03-06T01:32:05.563Z,22.17
2023-03-06T01:38:07.807Z,24.70
2023-03-06T01:44:14.295Z,23.73
2023-03-06T01:50:17.803Z,37.67
2023-03-06T01:56:21.309Z,26.63
2023-03-06T02:02:23.777Z,25.03
2023-03-06T02:08:36.606Z,22.13
2023-03-06T02:14:49.973Z,23.83
2023-03-06T02:21:00.246Z,28.33
2023-03-06T02:27:04.724Z,22.97
2023-03-06T02:33:09.926Z,19.23
2023-03-06T02:39:15.705Z,15.77
2023-03-06T02:45:41.201Z,15.67
2023-03-06T02:51:43.732Z,15.33
2023-03-06T02:57:46.174Z,16.63
2023-03-06T03:03:49.681Z,14.57
2023-03-06T03:09:52.078Z,15.50
2023-03-06T03:16:03.632Z,12.00
2023-03-06T03:22:06.095Z,12.73
2023-03-06T03:28:08.463Z,9.20
2023-03-06T03:34:10.381Z,10.63
2023-03-06T03:40:12.712Z,11.43
2023-03-06T03:46:15.886Z,11.53
2023-03-06T03:52:18.292Z,10.50
2023-03-06T03:58:20.421Z,8.07
2023-03-06T04:04:23.260Z,13.73
2023-03-06T04:10:25.675Z,9.27
2023-03-06T04:16:31.909Z,11.07
2023-03-06T04:22:34.592Z,17.43
2023-03-06T04:28:38.022Z,13.27
2023-03-06T04:34:41.890Z,9.03
2023-03-06T04:40:50.608Z,15.07
2023-03-06T04:46:59.016Z,30.10
2023-03-06T04:53:02.949Z,18.97
2023-03-06T04:59:09.791Z,19.20
2023-03-06T05:05:12.939Z,49.60
2023-03-06T05:11:15.322Z,33.20
2023-03-06T05:17:17.836Z,27.73
2023-03-06T05:23:20.257Z,24.33
2023-03-06T05:29:23.752Z,21.40
2023-03-06T05:35:26.245Z,26.43
2023-03-06T05:41:29.704Z,19.33
2023-03-06T05:47:34.111Z,26.30
2023-03-06T05:53:36.607Z,39.87
2023-03-06T05:59:39.106Z,20.83
2023-03-06T06:05:46.654Z,22.97
2023-03-06T06:11:54.110Z,19.13
2023-03-06T06:17:58.527Z,11.90
2023-03-06T06:24:01.011Z,14.10
2023-03-06T06:30:07.136Z,14.73
2023-03-06T06:36:23.375Z,18.43
2023-03-06T06:42:39.030Z,25.07
2023-03-06T06:48:41.980Z,20.07
2023-03-06T06:54:44.506Z,19.70
2023-03-06T07:00:48.887Z,14.00
2023-03-06T07:06:52.393Z,11.77
2023-03-06T07:12:55.798Z,17.00
2023-03-06T07:18:58.617Z,39.17
2023-03-06T07:25:01.826Z,27.97
2023-03-06T07:31:13.671Z,30.70
2023-03-06T07:37:28.037Z,22.80
2023-03-06T07:44:00.814Z,11.30
2023-03-06T07:50:21.903Z,9.37
2023-03-06T07:56:32.643Z,8.13
2023-03-06T08:02:38.953Z,8.37
2023-03-06T08:08:43.372Z,10.00
2023-03-06T08:21:16.437Z,18.33
2023-03-06T08:27:22.756Z,7.43
2023-03-06T08:33:30.378Z,9.13
2023-03-06T08:39:37.786Z,14.73
2023-03-06T08:45:41.359Z,9.60
2023-03-06T08:51:52.177Z,11.23
2023-03-06T08:57:57.455Z,13.30
2023-03-06T09:04:56.332Z,13.23
2023-03-06T09:10:47.256Z,11.40
2023-03-06T09:16:49.833Z,11.97
2023-03-06T09:23:05.276Z,22.87
2023-03-06T09:29:12.408Z,16.27
2023-03-06T09:35:15.352Z,12.50
2023-03-06T09:41:38.320Z,14.73
2023-03-06T09:48:08.016Z,15.27
2023-03-06T09:54:24.816Z,14.37
2023-03-06T10:01:03.408Z,15.30
2023-03-06T10:07:49.055Z,11.97
2023-03-06T10:13:56.514Z,14.60
2023-03-06T10:20:14.232Z,10.87
2023-03-06T10:26:40.345Z,13.83
2023-03-06T10:39:23.677Z,12.37
2023-03-06T10:45:49.000Z,10.60
2023-03-06T10:52:50.914Z,11.67
2023-03-06T10:59:20.322Z,8.20
2023-03-06T11:05:46.766Z,7.23
2023-03-06T11:12:09.765Z,14.40
2023-03-06T11:18:46.200Z,7.07
2023-03-06T11:24:54.550Z,5.97
2023-03-06T11:31:13.665Z,4.87
2023-03-06T11:37:43.733Z,5.23
2023-03-06T11:44:23.439Z,4.93
2023-03-06T11:50:38.501Z,5.30
2023-03-06T11:57:00.459Z,4.93
2023-03-06T12:03:21.052Z,5.03
2023-03-06T12:09:36.779Z,5.50
2023-03-06T12:16:09.318Z,5.17
2023-03-06T12:22:42.263Z,5.23
2023-03-06T12:29:10.264Z,7.47
2023-03-06T12:35:33.000Z,5.70
2023-03-06T12:41:48.299Z,7.20
2023-03-06T12:48:04.261Z,7.33
2023-03-06T12:54:09.967Z,6.80
2023-03-06T13:01:09.085Z,16.17
2023-03-06T13:07:23.618Z,4.33
2023-03-06T13:13:41.659Z,4.50
2023-03-06T13:19:44.574Z,6.67
2023-03-06T13:25:50.114Z,8.30
2023-03-06T13:32:13.511Z,3.70
2023-03-06T13:38:42.690Z,4.47
2023-03-06T13:45:30.861Z,9.20
2023-03-06T13:51:42.324Z,4.23
2023-03-06T13:58:04.915Z,4.23
2023-03-06T14:04:59.588Z,18.07
2023-03-06T14:11:12.193Z,28.33
2023-03-06T14:17:38.637Z,3.37
2023-03-06T14:23:49.339Z,4.33
2023-03-06T14:29:58.589Z,4.10
2023-03-06T14:36:07.988Z,4.13
2023-03-06T14:42:27.616Z,5.23
2023-03-06T14:48:49.938Z,4.30
2023-03-06T14:54:52.638Z,5.03
2023-03-06T15:00:58.297Z,4.17
2023-03-06T15:07:00.610Z,4.63
2023-03-06T15:13:12.089Z,4.57
2023-03-06T15:19:22.532Z,3.67
2023-03-06T15:25:34.070Z,6.17
2023-03-06T15:31:45.656Z,3.30
2023-03-06T15:37:54.107Z,23.80
2023-03-06T15:44:22.175Z,32.13
2023-03-06T15:50:27.103Z,58.67
2023-03-06T15:56:32.629Z,43.80
2023-03-06T16:02:37.533Z,42.23
2023-03-06T16:08:39.352Z,65.60
2023-03-06T16:14:41.399Z,74.40
2023-03-06T16:20:44.403Z,99.57
2023-03-06T16:26:51.904Z,74.70
2023-03-06T16:32:54.329Z,113.97
2023-03-06T16:38:57.768Z,91.03
2023-03-06T16:45:02.768Z,112.60
2023-03-06T16:51:05.710Z,187.10
2023-03-06T16:57:17.214Z,170.60
2023-03-06T17:03:28.288Z,131.70
2023-03-06T17:09:31.145Z,110.80
2023-03-06T17:15:35.895Z,141.00
2023-03-06T17:21:45.818Z,127.60
2023-03-06T17:27:54.653Z,169.77
2023-03-06T17:34:01.139Z,128.93
2023-03-06T17:40:04.538Z,65.53
2023-03-06T17:46:13.114Z,51.43
2023-03-06T17:52:22.641Z,28.03
2023-03-06T17:58:26.083Z,29.37
2023-03-06T18:04:31.483Z,49.70
2023-03-06T18:10:33.939Z,76.53
2023-03-06T18:16:37.493Z,120.50
2023-03-06T18:22:39.853Z,47.70
2023-03-06T18:28:54.725Z,134.37
2023-03-06T18:35:04.262Z,73.00
2023-03-06T18:41:10.881Z,54.30
2023-03-06T18:47:14.859Z,34.43
2023-03-06T18:53:21.314Z,68.23
2023-03-06T18:59:30.132Z,76.83
2023-03-06T19:05:32.245Z,66.03
2023-03-06T19:11:35.716Z,40.03
2023-03-06T19:17:39.256Z,38.20
2023-03-06T19:23:45.646Z,36.73
2023-03-06T19:29:48.114Z,80.87
2023-03-06T19:35:50.728Z,56.67
2023-03-06T19:41:54.031Z,73.17
2023-03-06T19:48:01.546Z,47.30
2023-03-06T19:54:04.050Z,31.50
2023-03-06T20:00:13.518Z,36.00
2023-03-06T20:06:19.033Z,44.80
2023-03-06T20:12:21.484Z,42.20
2023-03-06T20:18:23.935Z,35.87
2023-03-06T20:24:28.479Z,30.80
2023-03-06T20:30:38.153Z,26.73
2023-03-06T20:36:41.328Z,27.63
2023-03-06T20:42:43.794Z,44.43
2023-03-06T20:48:49.656Z,27.63
2023-03-06T20:54:51.730Z,43.97
2023-03-06T21:00:54.161Z,49.83
2023-03-06T21:06:56.714Z,41.30
2023-03-06T21:13:06.246Z,32.23
2023-03-06T21:19:16.174Z,26.73
2023-03-06T21:25:18.135Z,31.93
2023-03-06T21:31:22.753Z,35.67
2023-03-06T21:37:25.058Z,47.30
2023-03-06T21:43:28.852Z,31.30
2023-03-06T21:49:30.961Z,21.30
2023-03-06T21:55:33.423Z,52.27
2023-03-06T22:01:35.905Z,35.83
2023-03-06T22:07:39.361Z,37.93
2023-03-06T22:13:45.582Z,36.53
2023-03-06T22:19:52.397Z,33.53
2023-03-06T22:26:01.916Z,24.57
2023-03-06T22:32:04.458Z,30.27
2023-03-06T22:38:06.778Z,60.10
2023-03-06T22:44:16.244Z,133.27
2023-03-06T22:50:28.081Z,85.30
2023-03-06T22:56:31.216Z,226.47
2023-03-06T23:02:35.119Z,145.73
2023-03-06T23:08:39.473Z,67.33
2023-03-06T23:14:41.686Z,36.60
2023-03-06T23:20:45.078Z,33.87
2023-03-06T23:26:49.842Z,36.17
2023-03-06T23:32:59.090Z,25.00
2023-03-06T23:39:01.511Z,36.13
2023-03-06T23:45:12.370Z,27.70
2023-03-06T23:51:18.508Z,23.80
2023-03-06T23:57:20.918Z,37.93
